Terminal Aerodrome Forecast
Issued by NWS Jackson, MS

Home | Current Version | Previous Version | Text Only | Print | Product List | Glossary On
Versions: 1 2 3 4 5 6 7 8 9 10 11 12 13 14 15 16
939
FTUS44 KJAN 180618 RRA
TAFGWO
TAF
KGWO 180618Z 1806/1906 06008KT P6SM OVC018
     FM180900 06008KT P6SM BKN008 OVC015
     FM181700 13008KT 6SM -SHRA BKN015 OVC050
     FM182200 14006KT 5SM BR BKN015=

USA.gov is the U.S. government's official web portal to all federal, state and local government web resources and services.